createdAt,value
2018-10-21T00:01:30.995Z,50.00
2018-10-21T00:04:00.421Z,50.90
2018-10-21T00:06:30.549Z,51.60
2018-10-21T00:09:00.682Z,51.23
2018-10-21T00:11:30.006Z,50.43
2018-10-21T00:13:59.374Z,49.67
2018-10-21T00:16:28.832Z,49.80
2018-10-21T00:18:58.174Z,50.77
2018-10-21T00:21:27.523Z,51.57
2018-10-21T00:23:56.940Z,50.10
2018-10-21T00:26:26.309Z,51.80
2018-10-21T00:28:55.698Z,51.90
2018-10-21T00:31:25.049Z,52.80
2018-10-21T00:33:54.449Z,51.73
2018-10-21T00:36:23.881Z,52.73
2018-10-21T00:38:53.202Z,51.33
2018-10-21T00:41:22.613Z,51.47
2018-10-21T00:43:51.932Z,50.83
2018-10-21T00:46:22.054Z,52.80
2018-10-21T00:48:51.393Z,52.70
2018-10-21T00:51:20.772Z,53.00
2018-10-21T00:53:50.092Z,51.53
2018-10-21T00:56:19.506Z,52.00
2018-10-21T00:58:48.797Z,51.17
2018-10-21T01:01:18.134Z,49.93
2018-10-21T01:03:47.490Z,50.33
2018-10-21T01:06:16.788Z,50.27
2018-10-21T01:08:46.122Z,49.93
2018-10-21T01:11:16.227Z,50.87
2018-10-21T01:13:45.529Z,48.90
2018-10-21T01:16:14.935Z,49.87
2018-10-21T01:18:44.217Z,49.27
2018-10-21T01:21:13.620Z,49.77
2018-10-21T01:23:42.874Z,48.93
2018-10-21T01:26:12.298Z,48.03
2018-10-21T01:28:41.731Z,47.73
2018-10-21T01:31:11.183Z,47.97
2018-10-21T01:33:40.562Z,48.03
2018-10-21T01:36:10.190Z,49.23
2018-10-21T01:38:39.647Z,47.77
2018-10-21T01:41:09.022Z,47.00
2018-10-21T01:43:38.415Z,47.60
2018-10-21T01:46:07.708Z,46.93
2018-10-21T01:48:37.081Z,45.70
2018-10-21T01:51:06.540Z,46.10
2018-10-21T01:53:35.932Z,45.33
2018-10-21T01:56:05.587Z,44.70
2018-10-21T01:58:34.898Z,45.23
2018-10-21T02:01:04.650Z,45.47
2018-10-21T02:03:34.740Z,43.43
2018-10-21T02:06:04.097Z,44.43
2018-10-21T02:08:34.216Z,44.47
2018-10-21T02:11:03.602Z,42.60
2018-10-21T02:13:33.770Z,44.50
2018-10-21T02:16:03.306Z,44.63
2018-10-21T02:18:33.664Z,42.50
2018-10-21T02:21:02.981Z,45.37
2018-10-21T02:23:32.313Z,45.97
2018-10-21T02:26:01.682Z,43.77
2018-10-21T02:28:31.091Z,45.83
2018-10-21T02:31:00.483Z,45.33
2018-10-21T02:33:29.938Z,44.47
2018-10-21T02:35:59.176Z,44.50
2018-10-21T02:38:28.501Z,44.87
2018-10-21T02:41:39.292Z,44.10
2018-10-21T02:44:09.981Z,43.67
2018-10-21T02:46:40.224Z,44.20
2018-10-21T02:49:10.614Z,44.83
2018-10-21T02:51:40.156Z,44.87
2018-10-21T02:54:10.045Z,43.73
2018-10-21T02:56:39.363Z,44.10
2018-10-21T02:59:08.771Z,43.50
2018-10-21T03:01:38.125Z,44.43
2018-10-21T03:04:07.507Z,43.47
2018-10-21T03:06:36.830Z,44.57
2018-10-21T03:09:07.916Z,44.23
2018-10-21T03:11:37.267Z,44.13
2018-10-21T03:14:06.728Z,44.97
2018-10-21T03:16:36.069Z,43.40
2018-10-21T03:19:05.639Z,44.17
2018-10-21T03:21:35.154Z,45.07
2018-10-21T03:24:04.624Z,44.57
2018-10-21T03:26:34.722Z,46.60
2018-10-21T03:29:05.158Z,46.20
2018-10-21T03:31:34.500Z,44.57
2018-10-21T03:34:04.698Z,45.90
2018-10-21T03:36:33.844Z,46.83
2018-10-21T03:39:03.353Z,47.20
2018-10-21T03:41:32.706Z,47.17
2018-10-21T03:44:03.081Z,46.73
2018-10-21T03:46:32.443Z,47.40
2018-10-21T03:49:01.753Z,47.10
2018-10-21T03:51:31.090Z,48.33
2018-10-21T03:54:00.444Z,48.90
2018-10-21T03:56:29.778Z,47.83
2018-10-21T03:58:59.109Z,47.03
2018-10-21T04:01:28.659Z,47.23
2018-10-21T04:03:58.026Z,49.03
2018-10-21T04:06:27.361Z,47.07
2018-10-21T04:08:56.665Z,48.43
2018-10-21T04:11:26.023Z,48.30
2018-10-21T04:13:55.781Z,48.60
2018-10-21T04:16:25.119Z,46.77
2018-10-21T04:18:54.463Z,49.77
2018-10-21T04:21:23.896Z,47.03
2018-10-21T04:23:53.258Z,47.73
2018-10-21T04:26:22.733Z,47.93
2018-10-21T04:28:52.079Z,50.40
2018-10-21T04:31:21.434Z,50.37
2018-10-21T04:33:51.632Z,49.00
2018-10-21T04:36:24.970Z,53.13
2018-10-21T04:40:18.387Z,52.87
2018-10-21T04:42:48.152Z,53.63
2018-10-21T04:45:19.627Z,53.13
2018-10-21T04:47:49.044Z,54.33
2018-10-21T04:50:18.399Z,55.57
2018-10-21T04:52:47.782Z,55.70
2018-10-21T04:55:17.437Z,55.63
2018-10-21T04:57:47.566Z,57.67
2018-10-21T05:00:18.716Z,57.13
2018-10-21T05:02:48.114Z,57.80
2018-10-21T05:05:17.470Z,57.47
2018-10-21T05:07:46.783Z,57.17
2018-10-21T05:10:21.939Z,56.57
2018-10-21T05:12:51.300Z,54.67
2018-10-21T05:15:21.257Z,54.97
2018-10-21T05:17:50.611Z,53.67
2018-10-21T05:20:19.975Z,54.27
2018-10-21T05:22:49.391Z,54.03
2018-10-21T05:25:18.694Z,55.37
2018-10-21T05:27:48.659Z,53.47
2018-10-21T05:30:18.642Z,54.40
2018-10-21T05:32:47.991Z,53.63
2018-10-21T05:35:18.213Z,53.23
2018-10-21T05:37:47.609Z,54.07
2018-10-21T05:40:18.312Z,54.13
2018-10-21T05:42:47.863Z,52.97
2018-10-21T05:45:17.192Z,51.67
2018-10-21T05:47:46.629Z,51.03
2018-10-21T05:50:16.613Z,53.20
2018-10-21T05:52:46.026Z,52.43
2018-10-21T05:55:16.018Z,53.17
2018-10-21T05:57:45.500Z,53.27
2018-10-21T06:00:17.669Z,53.43
2018-10-21T06:02:47.112Z,53.03
2018-10-21T06:05:44.047Z,53.50
2018-10-21T06:08:13.373Z,53.97
2018-10-21T06:10:43.410Z,55.87
2018-10-21T06:13:13.085Z,55.30
2018-10-21T06:15:42.500Z,55.53
2018-10-21T06:18:14.502Z,55.50
2018-10-21T06:20:51.940Z,57.93
2018-10-21T06:23:21.253Z,55.97
2018-10-21T06:25:50.569Z,56.83
2018-10-21T06:28:20.047Z,56.43
2018-10-21T06:30:49.640Z,58.53
2018-10-21T06:33:19.071Z,57.93
2018-10-21T06:35:48.402Z,55.03
2018-10-21T06:38:17.878Z,55.93
2018-10-21T06:40:47.262Z,58.13
2018-10-21T06:43:16.610Z,59.37
2018-10-21T06:45:46.047Z,59.40
2018-10-21T06:48:15.462Z,60.30
2018-10-21T06:50:44.782Z,60.07
2018-10-21T06:53:14.125Z,59.57
2018-10-21T06:55:43.567Z,59.07
2018-10-21T06:58:13.801Z,62.13
2018-10-21T07:00:43.226Z,59.60
2018-10-21T07:03:12.570Z,59.77
2018-10-21T07:06:17.973Z,60.77
2018-10-21T07:08:47.982Z,58.07
2018-10-21T07:11:17.437Z,57.20
2018-10-21T07:13:46.832Z,57.30
2018-10-21T07:16:16.518Z,55.10
2018-10-21T07:18:47.035Z,54.23
2018-10-21T07:21:16.731Z,51.43
2018-10-21T07:23:46.350Z,51.57
2018-10-21T07:26:15.701Z,50.43
2018-10-21T07:28:45.033Z,51.07
2018-10-21T07:31:14.402Z,49.63
2018-10-21T07:33:43.832Z,49.00
2018-10-21T07:36:13.239Z,48.60
2018-10-21T07:38:42.672Z,47.30
2018-10-21T07:41:12.012Z,49.87
2018-10-21T07:43:41.408Z,49.17
2018-10-21T07:46:10.796Z,46.77
2018-10-21T07:48:40.221Z,46.57
2018-10-21T07:51:09.555Z,45.93
2018-10-21T07:53:39.005Z,46.63
2018-10-21T07:56:08.349Z,44.23
2018-10-21T07:58:37.709Z,45.60
2018-10-21T08:01:07.132Z,43.37
2018-10-21T08:03:36.410Z,41.63
2018-10-21T08:06:34.772Z,41.67
2018-10-21T08:09:06.298Z,39.80
2018-10-21T08:11:35.781Z,40.23
2018-10-21T08:14:05.131Z,37.93
2018-10-21T08:16:35.246Z,38.40
2018-10-21T08:19:04.664Z,37.33
2018-10-21T08:21:34.162Z,38.20
2018-10-21T08:24:03.595Z,36.63
2018-10-21T08:26:33.985Z,36.70
2018-10-21T08:29:04.107Z,38.20
2018-10-21T08:31:34.132Z,38.30
2018-10-21T08:34:03.651Z,35.33
2018-10-21T08:36:32.990Z,37.20
2018-10-21T08:39:02.337Z,37.50
2018-10-21T08:41:31.929Z,36.03
2018-10-21T08:44:01.332Z,37.53
2018-10-21T08:46:30.807Z,36.00
2018-10-21T08:49:00.127Z,36.03
2018-10-21T08:51:29.473Z,35.93
2018-10-21T08:53:58.797Z,36.97
2018-10-21T08:56:28.178Z,36.13
2018-10-21T08:58:58.480Z,36.37
2018-10-21T09:01:27.971Z,37.27
2018-10-21T09:03:57.305Z,35.83
2018-10-21T09:06:26.613Z,36.03
2018-10-21T09:08:56.202Z,36.30
2018-10-21T09:11:26.407Z,37.20
2018-10-21T09:13:55.853Z,36.57
2018-10-21T09:16:25.330Z,37.07
2018-10-21T09:18:54.686Z,37.00
2018-10-21T09:21:23.982Z,37.10
2018-10-21T09:23:53.404Z,37.30
2018-10-21T09:26:22.698Z,37.53
2018-10-21T09:28:52.041Z,36.57
2018-10-21T09:31:21.420Z,37.50
2018-10-21T09:33:50.869Z,37.80
2018-10-21T09:36:20.305Z,37.70
2018-10-21T09:38:49.932Z,36.93
2018-10-21T09:41:19.279Z,35.43
2018-10-21T09:43:48.654Z,36.63
2018-10-21T09:46:18.108Z,35.37
2018-10-21T09:48:47.423Z,37.57
2018-10-21T09:51:16.747Z,35.10
2018-10-21T09:53:46.185Z,35.37
2018-10-21T09:56:15.621Z,35.00
2018-10-21T09:58:45.049Z,35.23
2018-10-21T10:01:19.624Z,35.70
2018-10-21T10:03:49.013Z,35.20
2018-10-21T10:06:18.341Z,34.67
2018-10-21T10:08:47.780Z,34.50
2018-10-21T10:11:17.144Z,36.00
2018-10-21T10:13:46.499Z,36.27
2018-10-21T10:16:16.526Z,33.07
2018-10-21T10:18:45.886Z,34.13
2018-10-21T10:21:15.259Z,35.03
2018-10-21T10:23:44.615Z,34.57
2018-10-21T10:26:13.976Z,34.40
2018-10-21T10:28:43.619Z,33.37
2018-10-21T10:31:13.032Z,34.20
2018-10-21T10:33:42.451Z,33.47
2018-10-21T10:36:11.899Z,35.13
2018-10-21T10:38:41.321Z,34.53
2018-10-21T10:41:10.659Z,33.73
2018-10-21T10:43:39.990Z,35.30
2018-10-21T10:46:09.375Z,35.63
2018-10-21T10:48:38.778Z,35.03
2018-10-21T10:51:08.982Z,33.13
2018-10-21T10:53:38.374Z,33.93
2018-10-21T10:56:07.844Z,34.33
2018-10-21T10:58:37.159Z,35.13
2018-10-21T11:01:06.625Z,32.87
2018-10-21T11:03:35.997Z,33.67
2018-10-21T11:06:05.428Z,35.77
2018-10-21T11:08:34.725Z,33.90
2018-10-21T11:11:04.110Z,34.57
2018-10-21T11:13:33.437Z,35.30
2018-10-21T11:16:03.695Z,33.23
2018-10-21T11:18:33.023Z,34.90
2018-10-21T11:21:02.706Z,34.60
2018-10-21T11:23:32.247Z,35.43
2018-10-21T11:26:01.863Z,34.57
2018-10-21T11:28:31.245Z,33.83
2018-10-21T11:31:00.589Z,33.63
2018-10-21T11:33:29.936Z,33.07
2018-10-21T11:35:59.327Z,33.50
2018-10-21T11:38:28.695Z,33.97
2018-10-21T11:40:58.042Z,36.30
2018-10-21T11:43:27.407Z,34.50
2018-10-21T11:45:56.754Z,33.67
2018-10-21T11:48:26.138Z,34.93
2018-10-21T11:50:55.617Z,34.23
2018-10-21T11:53:24.986Z,35.27
2018-10-21T11:55:54.359Z,34.93
2018-10-21T11:58:23.722Z,35.77
2018-10-21T12:00:53.142Z,33.87
2018-10-21T12:03:22.486Z,34.83
2018-10-21T12:05:51.944Z,34.60
2018-10-21T12:08:21.286Z,33.13
2018-10-21T12:10:50.648Z,34.50
2018-10-21T12:13:20.067Z,35.97
2018-10-21T12:15:49.560Z,33.97
2018-10-21T12:18:18.969Z,34.97
2018-10-21T12:20:48.301Z,34.17
2018-10-21T12:23:17.630Z,35.03
2018-10-21T12:25:47.815Z,34.63
2018-10-21T12:28:17.222Z,34.60
2018-10-21T12:30:47.273Z,34.00
2018-10-21T12:33:16.642Z,33.53
2018-10-21T12:35:45.964Z,33.10
2018-10-21T12:38:15.355Z,35.70
2018-10-21T12:40:44.684Z,33.63
2018-10-21T12:43:14.268Z,33.77
2018-10-21T12:45:43.545Z,34.37
2018-10-21T12:48:12.872Z,35.80
2018-10-21T12:50:42.391Z,35.90
2018-10-21T12:53:12.285Z,36.47
2018-10-21T12:55:47.652Z,36.23
2018-10-21T12:58:17.369Z,36.70
2018-10-21T13:00:46.765Z,36.83
2018-10-21T13:03:16.164Z,35.23
2018-10-21T13:05:45.484Z,36.93
2018-10-21T13:08:14.812Z,34.20
2018-10-21T13:10:45.302Z,34.77
2018-10-21T13:13:15.641Z,34.73
2018-10-21T13:15:48.294Z,33.70
2018-10-21T13:18:17.697Z,32.20
2018-10-21T13:20:47.150Z,34.30
2018-10-21T13:23:16.922Z,34.23
2018-10-21T13:25:50.933Z,31.50
2018-10-21T13:28:21.662Z,30.20
2018-10-21T13:30:50.884Z,30.57
2018-10-21T13:33:20.344Z,29.20
2018-10-21T13:35:49.689Z,28.53
2018-10-21T13:38:19.630Z,26.93
2018-10-21T13:40:48.945Z,27.77
2018-10-21T13:43:18.392Z,26.23
2018-10-21T13:45:47.715Z,24.53
2018-10-21T13:48:17.045Z,23.73
2018-10-21T13:50:46.377Z,25.30
2018-10-21T13:53:15.737Z,24.90
2018-10-21T13:55:45.085Z,24.13
2018-10-21T13:58:14.456Z,23.67
2018-10-21T14:00:43.879Z,23.50
2018-10-21T14:03:13.885Z,24.40
2018-10-21T14:05:43.229Z,24.30
2018-10-21T14:08:12.576Z,23.33
2018-10-21T14:10:42.074Z,23.50
2018-10-21T14:13:11.476Z,22.03
2018-10-21T14:15:41.465Z,21.70
2018-10-21T14:18:10.875Z,20.97
2018-10-21T14:20:40.985Z,20.37
2018-10-21T14:23:10.406Z,22.63
2018-10-21T14:25:39.770Z,24.10
2018-10-21T14:28:09.080Z,23.50
2018-10-21T14:30:38.686Z,24.40
2018-10-21T14:33:08.145Z,24.43
2018-10-21T14:35:37.524Z,24.43
2018-10-21T14:38:06.983Z,24.47
2018-10-21T14:40:36.259Z,24.73
2018-10-21T14:43:05.648Z,23.83
2018-10-21T14:45:35.057Z,25.23
2018-10-21T14:48:04.445Z,24.63
2018-10-21T14:50:33.783Z,24.27
2018-10-21T14:53:03.320Z,22.23
2018-10-21T14:55:32.721Z,22.30
2018-10-21T14:58:02.176Z,23.30
2018-10-21T15:00:31.794Z,23.23
2018-10-21T15:03:01.085Z,25.13
2018-10-21T15:05:30.344Z,24.73
2018-10-21T15:07:59.806Z,24.40
2018-10-21T15:10:29.116Z,24.50
2018-10-21T15:12:58.612Z,23.97
2018-10-21T15:15:28.022Z,25.33
2018-10-21T15:17:57.410Z,24.43
2018-10-21T15:20:27.333Z,24.30
2018-10-21T15:22:56.690Z,22.73
2018-10-21T15:25:26.057Z,22.00
2018-10-21T15:27:55.386Z,22.70
2018-10-21T15:30:24.804Z,20.83
2018-10-21T15:32:54.825Z,21.17
2018-10-21T15:35:24.149Z,21.33
2018-10-21T15:37:53.496Z,21.40
2018-10-21T15:40:22.797Z,21.90
2018-10-21T15:42:52.338Z,21.57
2018-10-21T15:45:21.698Z,21.63
2018-10-21T15:47:51.060Z,22.47
2018-10-21T15:50:20.477Z,21.80
2018-10-21T15:52:49.789Z,21.03
2018-10-21T15:55:19.123Z,22.67
2018-10-21T15:57:48.454Z,22.43
2018-10-21T16:00:17.855Z,24.23
2018-10-21T16:02:47.237Z,23.50
2018-10-21T16:05:16.717Z,22.27
2018-10-21T16:07:46.907Z,23.93
2018-10-21T16:10:16.134Z,23.87
2018-10-21T16:12:45.568Z,23.43
2018-10-21T16:15:16.089Z,24.27
2018-10-21T16:17:46.743Z,24.20
2018-10-21T16:20:16.148Z,23.37
2018-10-21T16:22:46.002Z,23.60
2018-10-21T16:25:16.130Z,23.33
2018-10-21T16:27:45.590Z,23.03
2018-10-21T16:30:15.834Z,21.80
2018-10-21T16:32:45.663Z,20.50
2018-10-21T16:35:15.186Z,20.67
2018-10-21T16:37:45.074Z,20.77
2018-10-21T16:40:16.504Z,19.70
2018-10-21T16:42:45.839Z,19.23
2018-10-21T16:45:16.073Z,18.67
2018-10-21T16:47:45.395Z,19.60
2018-10-21T16:50:16.053Z,20.40
2018-10-21T16:52:46.145Z,20.70
2018-10-21T16:55:16.333Z,19.80
2018-10-21T16:57:46.495Z,19.90
2018-10-21T17:00:17.415Z,20.30
2018-10-21T17:02:46.656Z,20.10
2018-10-21T17:05:16.075Z,20.73
2018-10-21T17:07:45.441Z,20.83
2018-10-21T17:10:15.130Z,21.43
2018-10-21T17:12:44.192Z,22.90
2018-10-21T17:15:13.617Z,23.40
2018-10-21T17:17:43.716Z,22.73
2018-10-21T17:20:14.528Z,24.30
2018-10-21T17:22:44.312Z,23.27
2018-10-21T17:25:14.396Z,23.77
2018-10-21T17:27:44.123Z,23.67
2018-10-21T17:30:16.298Z,23.77
2018-10-21T17:32:45.940Z,24.57
2018-10-21T17:35:15.698Z,24.50
2018-10-21T17:37:45.039Z,25.37
2018-10-21T17:40:14.561Z,24.67
2018-10-21T17:42:43.913Z,23.80
2018-10-21T17:45:14.492Z,25.50
2018-10-21T17:47:44.011Z,25.00
2018-10-21T17:50:15.255Z,25.50
2018-10-21T17:52:45.179Z,26.03
2018-10-21T17:55:14.835Z,26.63
2018-10-21T17:57:44.103Z,25.70
2018-10-21T18:00:14.682Z,26.30
2018-10-21T18:02:44.239Z,26.47
2018-10-21T18:05:14.785Z,26.40
2018-10-21T18:07:44.387Z,25.57
2018-10-21T18:10:13.994Z,27.80
2018-10-21T18:12:43.419Z,26.30
2018-10-21T18:15:13.013Z,27.60
2018-10-21T18:17:42.688Z,27.70
2018-10-21T18:20:13.039Z,28.70
2018-10-21T18:22:42.689Z,27.80
2018-10-21T18:25:12.154Z,26.83
2018-10-21T18:27:41.845Z,26.93
2018-10-21T18:30:12.384Z,27.37
2018-10-21T18:32:42.036Z,28.40
2018-10-21T18:35:14.193Z,28.10
2018-10-21T18:37:43.832Z,27.87
2018-10-21T18:40:13.346Z,27.57
2018-10-21T18:42:42.826Z,28.27
2018-10-21T18:45:14.471Z,27.97
2018-10-21T18:47:44.957Z,28.23
2018-10-21T18:50:15.474Z,27.70
2018-10-21T18:52:45.031Z,26.77
2018-10-21T18:55:14.667Z,27.70
2018-10-21T18:57:44.518Z,28.00
2018-10-21T19:00:16.159Z,27.63
2018-10-21T19:02:46.764Z,29.10
2018-10-21T19:05:16.457Z,27.47
2018-10-21T19:07:46.042Z,27.57
2018-10-21T19:10:16.194Z,27.77
2018-10-21T19:12:45.571Z,28.43
2018-10-21T19:15:15.110Z,26.83
2018-10-21T19:17:44.867Z,26.83
2018-10-21T19:20:16.021Z,28.60
2018-10-21T19:22:45.976Z,27.37
2018-10-21T19:25:16.529Z,28.13
2018-10-21T19:27:46.851Z,27.53
2018-10-21T19:30:16.437Z,28.03
2018-10-21T19:32:45.843Z,28.83
2018-10-21T19:35:16.102Z,30.23
2018-10-21T19:37:45.682Z,29.07
2018-10-21T19:40:15.973Z,27.27
2018-10-21T19:42:45.633Z,28.53
2018-10-21T19:45:15.472Z,28.60
2018-10-21T19:47:45.148Z,27.03
2018-10-21T19:50:15.749Z,28.60
2018-10-21T19:52:45.371Z,28.07
2018-10-21T19:55:15.027Z,28.77
2018-10-21T19:57:44.334Z,28.50
2018-10-21T20:00:15.070Z,30.37
2018-10-21T20:02:44.833Z,29.67
2018-10-21T20:05:14.395Z,31.03
2018-10-21T20:07:43.757Z,29.70
2018-10-21T20:10:14.272Z,29.37
2018-10-21T20:12:43.549Z,29.80
2018-10-21T20:15:13.428Z,31.13
2018-10-21T20:17:42.833Z,30.87
2018-10-21T20:20:12.674Z,31.20
2018-10-21T20:22:42.065Z,30.27
2018-10-21T20:25:11.737Z,33.37
2018-10-21T20:27:41.105Z,31.83
2018-10-21T20:30:11.902Z,32.87
2018-10-21T20:32:41.418Z,33.43
2018-10-21T20:35:11.747Z,31.93
2018-10-21T20:37:41.242Z,32.37
2018-10-21T20:40:11.289Z,32.57
2018-10-21T20:42:40.660Z,33.37
2018-10-21T20:45:11.447Z,33.87
2018-10-21T20:47:40.879Z,32.17
2018-10-21T20:50:10.275Z,34.17
2018-10-21T20:52:39.798Z,33.53
2018-10-21T20:55:09.126Z,33.33
2018-10-21T20:57:38.477Z,34.00
2018-10-21T21:00:08.007Z,34.43
2018-10-21T21:02:37.800Z,34.87
2018-10-21T21:05:08.245Z,33.83
2018-10-21T21:07:38.567Z,35.00
2018-10-21T21:10:08.775Z,33.93
2018-10-21T21:12:38.744Z,35.33
2018-10-21T21:15:09.594Z,35.53
2018-10-21T21:17:38.978Z,36.00
2018-10-21T21:20:08.876Z,38.70
2018-10-21T21:22:38.280Z,37.03
2018-10-21T21:25:07.704Z,37.00
2018-10-21T21:27:37.053Z,37.50
2018-10-21T21:30:07.341Z,37.37
2018-10-21T21:32:36.671Z,37.57
2018-10-21T21:35:07.219Z,38.07
2018-10-21T21:37:36.674Z,39.03
2018-10-21T21:40:07.825Z,39.10
2018-10-21T21:42:37.992Z,40.23
2018-10-21T21:45:07.808Z,40.60
2018-10-21T21:47:37.115Z,41.37
2018-10-21T21:50:07.543Z,41.00
2018-10-21T21:52:36.920Z,40.00
2018-10-21T21:55:06.737Z,41.23
2018-10-21T21:57:36.096Z,41.70
2018-10-21T22:00:08.561Z,42.97
2018-10-21T22:02:37.952Z,41.20
2018-10-21T22:05:08.590Z,41.83
2018-10-21T22:07:39.155Z,42.87
2018-10-21T22:10:10.124Z,43.13
2018-10-21T22:12:39.481Z,44.37
2018-10-21T22:15:08.849Z,45.80
2018-10-21T22:17:39.647Z,46.67
2018-10-21T22:20:08.981Z,47.23
2018-10-21T22:22:38.289Z,48.93
2018-10-21T22:25:07.752Z,50.70
2018-10-21T22:27:37.113Z,51.60
2018-10-21T22:30:08.027Z,52.90
2018-10-21T22:32:37.280Z,52.50
2018-10-21T22:35:07.656Z,54.70
2018-10-21T22:37:37.159Z,54.77
2018-10-21T22:40:06.624Z,57.10
2018-10-21T22:42:36.032Z,56.37
2018-10-21T22:45:07.039Z,56.13
2018-10-21T22:47:36.383Z,56.10
2018-10-21T22:50:07.444Z,54.63
2018-10-21T22:52:36.776Z,55.80
2018-10-21T22:55:06.878Z,57.87
2018-10-21T22:57:36.809Z,58.43
2018-10-21T23:00:08.232Z,56.73
2018-10-21T23:02:37.515Z,59.10
2018-10-21T23:05:07.970Z,58.37
2018-10-21T23:07:37.928Z,57.27
2018-10-21T23:10:07.389Z,58.23
2018-10-21T23:12:36.690Z,59.33
2018-10-21T23:15:06.945Z,57.47
2018-10-21T23:17:36.306Z,57.20
2018-10-21T23:20:06.915Z,57.60
2018-10-21T23:22:36.340Z,57.43
2018-10-21T23:25:06.617Z,57.60
2018-10-21T23:27:36.076Z,59.20
2018-10-21T23:30:06.538Z,60.97
2018-10-21T23:32:35.881Z,63.70
2018-10-21T23:35:05.713Z,65.30
2018-10-21T23:37:35.011Z,65.20
2018-10-21T23:40:04.571Z,74.50
2018-10-21T23:42:33.888Z,75.03
2018-10-21T23:45:03.275Z,75.47
2018-10-21T23:47:32.638Z,80.63
2018-10-21T23:50:01.959Z,84.33
2018-10-21T23:52:31.331Z,86.37
2018-10-21T23:55:00.674Z,90.37
2018-10-21T23:57:30.159Z,91.17
2018-10-21T23:59:59.532Z,96.23
